Mc Comb, Ohio
Current Conditions -  °F | °C
As of 7:53 AM on Friday 24 Oct 2014 (Local Time) from KFDY Reporting Station
Haze Haze  
Wind Chill: 39°   Ceiling: Unl
Heat Index: 39°   Visibility: 5mi
Dew Point: 35°   Wind: 3mph
Humidity: 86%   Direction: 190°S
Pressure: 30.09"   Gusts: NA
Location:  41.11°N, 83.7983°W
Report Text: KFDY 241153Z AUTO 19003KT 5SM BR CLR 04/02 A3009 RMK AO2 SLP192 T00390017 10056 20028 51001
Loading
Personal Weather Stations






























Interactive Weather Map
Tropical Storm Tracking
New forecast layout! Learn more

10-Day Weather Forecast

Advertisements
Track Severe Weather on mobile